Rain From: 21-07-2018 02:00 Until: 16:00 warning for: Rain Level: Yellow info button
suomi:
Sadevaroitus: Aamuyöstä alkaen voi sataa rankasti, yli 20 mm tunnissa.

svenska:
Nederbördsvarning: Från och med efternatten kan det förekomma synnerligen riklig nederbörd, mer än 20 mm i timmen.

english:
Heavy rain warning: From the early morning on heavy rain of more than 20 mm per hour can be expected. 

Forest fire From: 20-07-2018 23:00 Until: 21-07-2018 11:00 warning for: Forest fire Level: Yellow info button
suomi:
Metsäpalovaroitus on voimassa.

svenska:
Varning för skogsbrand gäller.

english:
A forest fire warning is in force. 


Thunder radar more information blitzortung!


Löydät sääaseman tiedot myös:

European Weather Network

Finland Weather Exchange

Weather Underground

AWEKAS



Weather Underground säähistoriasivu

Päivittäin yhteenveto Helmikuu 19, 2017 Yksiköt:  Molemmat    Englantilaiset   Metriset
« Edellinen Päivä
Seuraava Päivä »
Päivittäin Viikoittain Kuukausittain Vuosittain Mukautettu
  Korkea: Matala: Keskiarvo:
Lämpötila: TemperatureC °F /  -17.8 °C -0.7 °F /  -18.2 °C 1.7 °F /  -16.8 °C
Kastepiste: DewpointC °F /  -17.8 °C -2.0 °F /  -18.9 °C 1.1 °F /  -17.2 °C
Kosteus: Humidity % 90 % 94 %
Tuulen nopeus: WindSpeedKMH mph /  0 km/h - 5.5 mph /  8.9 km/h
Tuulenpuuska: WindSpeedGustKMH mph /  0 km/h - -
Tuuli:- - SW
Ilmanpaine: PressurehPa in /  0 hPa 984.0 in /  33318.2 hPa -
Sade: 0.0 in /  0 mm    
Historical Graphs
 
 
Taulukkotiedot Helmikuu 19, 2017
Aika Lämpötila Kastepiste Ilmanpaine Tuuli Tuulen nopeus Tuulenpuuska Kosteus Sademäärä (tunneittain)
TemperatureC °F /  -17.8 °C DewpointC °F /  -17.8 °C PressurehPa in /  0 hPa Calm     Humidity % HourlyPrecipMM in /  0 mm
00:00 1.4 °F /  -17 °C 0.8 °F /  -17.3 °C 997.9 in /  33788.9 hPa South 1.6 mph /  2.6 km/h 9.7 mph /  15.6 km/h 96 % 0.0 in /  0 mm
00:15 1.3 °F /  -17.1 °C 0.7 °F /  -17.4 °C 997.5 in /  33775.4 hPa SSW 1.6 mph /  2.6 km/h 11.3 mph /  18.2 km/h 96 % 0.0 in /  0 mm
00:30 1.2 °F /  -17.1 °C 0.6 °F /  -17.4 °C 997.2 in /  33765.2 hPa SSW 3.2 mph /  5.1 km/h 9.7 mph /  15.6 km/h 96 % 0.0 in /  0 mm
00:45 1.1 °F /  -17.2 °C 0.5 °F /  -17.5 °C 996.8 in /  33751.6 hPa SSW 4.8 mph /  7.7 km/h 11.3 mph /  18.2 km/h 96 % 0.0 in /  0 mm
01:00 0.9 °F /  -17.3 °C 0.4 °F /  -17.6 °C 996.5 in /  33741.5 hPa SSW 4.8 mph /  7.7 km/h 11.3 mph /  18.2 km/h 96 % 0.0 in /  0 mm
01:15 0.8 °F /  -17.3 °C 0.1 °F /  -17.7 °C 996.2 in /  33731.3 hPa SSW 3.2 mph /  5.1 km/h 12.9 mph /  20.8 km/h 95 % 0.0 in /  0 mm
01:30 0.8 °F /  -17.3 °C 0.1 °F /  -17.7 °C 995.8 in /  33717.8 hPa SSW 4.8 mph /  7.7 km/h 14.5 mph /  23.3 km/h 95 % 0.0 in /  0 mm
01:45 0.7 °F /  -17.4 °C 0.0 °F /  -17.8 °C 995.8 in /  33717.8 hPa SSW 8.0 mph /  12.9 km/h 16.1 mph /  25.9 km/h 95 % 0.0 in /  0 mm
02:00 0.7 °F /  -17.4 °C 0.0 °F /  -17.8 °C 995.8 in /  33717.8 hPa SSW 6.4 mph /  10.3 km/h 12.9 mph /  20.8 km/h 95 % 0.0 in /  0 mm
02:15 0.7 °F /  -17.4 °C 0.0 °F /  -17.8 °C 995.5 in /  33707.6 hPa SSW 6.4 mph /  10.3 km/h 14.5 mph /  23.3 km/h 95 % 0.0 in /  0 mm
02:30 0.7 °F /  -17.4 °C 0.0 °F /  -17.8 °C 995.1 in /  33694.1 hPa SW 6.4 mph /  10.3 km/h 12.9 mph /  20.8 km/h 95 % 0.0 in /  0 mm
02:45 0.8 °F /  -17.3 °C 0.1 °F /  -17.7 °C 995.1 in /  33694.1 hPa SSW 4.8 mph /  7.7 km/h 14.5 mph /  23.3 km/h 95 % 0.0 in /  0 mm
03:00 0.8 °F /  -17.3 °C 0.1 °F /  -17.7 °C 994.8 in /  33683.9 hPa SSW 6.4 mph /  10.3 km/h 16.1 mph /  25.9 km/h 95 % 0.0 in /  0 mm
03:15 0.8 °F /  -17.3 °C 0.1 °F /  -17.7 °C 994.5 in /  33673.8 hPa SSW 6.4 mph /  10.3 km/h 12.9 mph /  20.8 km/h 95 % 0.0 in /  0 mm
03:30 0.8 °F /  -17.3 °C 0.1 °F /  -17.7 °C 994.1 in /  33660.2 hPa SSW 6.4 mph /  10.3 km/h 16.1 mph /  25.9 km/h 95 % 0.0 in /  0 mm
03:45 0.8 °F /  -17.3 °C 0.1 °F /  -17.7 °C 993.8 in /  33650.1 hPa SSW 6.4 mph /  10.3 km/h 17.7 mph /  28.5 km/h 95 % 0.0 in /  0 mm
04:00 0.9 °F /  -17.3 °C 0.0 °F /  -17.8 °C 993.5 in /  33639.9 hPa SSW 6.4 mph /  10.3 km/h 17.7 mph /  28.5 km/h 94 % 0.0 in /  0 mm
04:15 0.9 °F /  -17.3 °C 0.0 °F /  -17.8 °C 993.1 in /  33626.4 hPa SSW 8.0 mph /  12.9 km/h 17.7 mph /  28.5 km/h 94 % 0.0 in /  0 mm
04:30 0.8 °F /  -17.3 °C 0.0 °F /  -17.8 °C 993.1 in /  33626.4 hPa SSW 8.0 mph /  12.9 km/h 14.5 mph /  23.3 km/h 94 % 0.0 in /  0 mm
04:45 0.8 °F /  -17.3 °C -0.1 °F /  -17.8 °C 992.8 in /  33616.2 hPa SSW 8.0 mph /  12.9 km/h 19.3 mph /  31.1 km/h 94 % 0.0 in /  0 mm
05:00 0.7 °F /  -17.4 °C -0.1 °F /  -17.8 °C 992.4 in /  33602.7 hPa SSW 4.8 mph /  7.7 km/h 14.5 mph /  23.3 km/h 94 % 0.0 in /  0 mm
05:15 0.8 °F /  -17.3 °C -0.1 °F /  -17.8 °C 992.1 in /  33592.5 hPa SSW 9.7 mph /  15.6 km/h 17.7 mph /  28.5 km/h 94 % 0.0 in /  0 mm
05:30 0.7 °F /  -17.4 °C -0.1 °F /  -17.8 °C 991.8 in /  33582.3 hPa SSW 8.0 mph /  12.9 km/h 14.5 mph /  23.3 km/h 94 % 0.0 in /  0 mm
05:45 0.8 °F /  -17.3 °C -0.1 °F /  -17.8 °C 991.8 in /  33582.3 hPa SSW 6.4 mph /  10.3 km/h 17.7 mph /  28.5 km/h 94 % 0.0 in /  0 mm
06:00 0.8 °F /  -17.3 °C 0.0 °F /  -17.8 °C 991.4 in /  33568.8 hPa SSW 8.0 mph /  12.9 km/h 20.9 mph /  33.6 km/h 94 % 0.0 in /  0 mm
06:15 0.8 °F /  -17.3 °C 0.0 °F /  -17.8 °C 991.4 in /  33568.8 hPa SSW 8.0 mph /  12.9 km/h 14.5 mph /  23.3 km/h 94 % 0.0 in /  0 mm
06:30 0.9 °F /  -17.3 °C 0.0 °F /  -17.8 °C 991.1 in /  33558.6 hPa SSW 9.7 mph /  15.6 km/h 19.3 mph /  31.1 km/h 94 % 0.0 in /  0 mm
06:45 0.9 °F /  -17.3 °C 0.0 °F /  -17.8 °C 990.7 in /  33545.1 hPa SSW 9.7 mph /  15.6 km/h 22.5 mph /  36.2 km/h 94 % 0.0 in /  0 mm
07:00 0.8 °F /  -17.3 °C 0.0 °F /  -17.8 °C 990.4 in /  33534.9 hPa SSW 8.0 mph /  12.9 km/h 17.7 mph /  28.5 km/h 94 % 0.0 in /  0 mm
07:15 0.8 °F /  -17.3 °C -0.1 °F /  -17.8 °C 990.1 in /  33524.8 hPa SSW 8.0 mph /  12.9 km/h 22.5 mph /  36.2 km/h 94 % 0.0 in /  0 mm
07:30 0.8 °F /  -17.3 °C -0.1 °F /  -17.8 °C 990.1 in /  33524.8 hPa SSW 4.8 mph /  7.7 km/h 16.1 mph /  25.9 km/h 94 % 0.0 in /  0 mm
07:45 0.8 °F /  -17.3 °C 0.1 °F /  -17.7 °C 990.1 in /  33524.8 hPa SSW 6.4 mph /  10.3 km/h 16.1 mph /  25.9 km/h 95 % 0.0 in /  0 mm
08:00 0.8 °F /  -17.3 °C 0.1 °F /  -17.7 °C 989.7 in /  33511.2 hPa SSW 8.0 mph /  12.9 km/h 14.5 mph /  23.3 km/h 95 % 0.0 in /  0 mm
08:15 0.8 °F /  -17.3 °C 0.1 °F /  -17.7 °C 989.7 in /  33511.2 hPa SSW 9.7 mph /  15.6 km/h 17.7 mph /  28.5 km/h 95 % 0.0 in /  0 mm
08:30 0.9 °F /  -17.3 °C 0.2 °F /  -17.7 °C 989.4 in /  33501.1 hPa SSW 8.0 mph /  12.9 km/h 22.5 mph /  36.2 km/h 95 % 0.0 in /  0 mm
08:45 0.9 °F /  -17.3 °C 0.2 °F /  -17.7 °C 989.1 in /  33490.9 hPa SSW 6.4 mph /  10.3 km/h 17.7 mph /  28.5 km/h 95 % 0.0 in /  0 mm
09:00 0.9 °F /  -17.3 °C 0.3 °F /  -17.6 °C 989.1 in /  33490.9 hPa SSW 4.8 mph /  7.7 km/h 12.9 mph /  20.8 km/h 96 % 0.0 in /  0 mm
09:15 0.9 °F /  -17.3 °C 0.3 °F /  -17.6 °C 989.1 in /  33490.9 hPa SSW 4.8 mph /  7.7 km/h 12.9 mph /  20.8 km/h 96 % 0.0 in /  0 mm
09:45 1.0 °F /  -17.2 °C 0.4 °F /  -17.6 °C 988.7 in /  33477.4 hPa SSW 6.4 mph /  10.3 km/h 14.5 mph /  23.3 km/h 96 % 0.0 in /  0 mm
10:00 1.1 °F /  -17.2 °C 0.5 °F /  -17.5 °C 989.1 in /  33490.9 hPa SSW 6.4 mph /  10.3 km/h 16.1 mph /  25.9 km/h 96 % 0.0 in /  0 mm
10:15 1.2 °F /  -17.1 °C 0.7 °F /  -17.4 °C 989.1 in /  33490.9 hPa SSW 4.8 mph /  7.7 km/h 16.1 mph /  25.9 km/h 96 % 0.0 in /  0 mm
10:30 1.3 °F /  -17.1 °C 0.9 °F /  -17.3 °C 988.7 in /  33477.4 hPa SSW 4.8 mph /  7.7 km/h 9.7 mph /  15.6 km/h 97 % 0.0 in /  0 mm
10:45 1.5 °F /  -16.9 °C 1.1 °F /  -17.2 °C 988.7 in /  33477.4 hPa SW 3.2 mph /  5.1 km/h 9.7 mph /  15.6 km/h 97 % 0.0 in /  0 mm
11:00 1.7 °F /  -16.8 °C 1.3 °F /  -17.1 °C 988.7 in /  33477.4 hPa SSW 3.2 mph /  5.1 km/h 6.4 mph /  10.3 km/h 97 % 0.0 in /  0 mm
11:15 1.8 °F /  -16.8 °C 1.4 °F /  -17 °C 988.4 in /  33467.2 hPa SW 3.2 mph /  5.1 km/h 8.0 mph /  12.9 km/h 97 % 0.0 in /  0 mm
11:30 2.0 °F /  -16.7 °C 1.6 °F /  -16.9 °C 988.4 in /  33467.2 hPa SSW 3.2 mph /  5.1 km/h 12.9 mph /  20.8 km/h 97 % 0.0 in /  0 mm
11:45 2.2 °F /  -16.6 °C 1.7 °F /  -16.8 °C 988.4 in /  33467.2 hPa WSW 3.2 mph /  5.1 km/h 8.0 mph /  12.9 km/h 97 % 0.0 in /  0 mm
12:00 2.3 °F /  -16.5 °C 1.9 °F /  -16.7 °C 988.4 in /  33467.2 hPa SSW 3.2 mph /  5.1 km/h 8.0 mph /  12.9 km/h 97 % 0.0 in /  0 mm
12:15 2.5 °F /  -16.4 °C 2.1 °F /  -16.6 °C 988.4 in /  33467.2 hPa SSW 4.8 mph /  7.7 km/h 11.3 mph /  18.2 km/h 97 % 0.0 in /  0 mm
12:30 2.7 °F /  -16.3 °C 2.2 °F /  -16.6 °C 988.4 in /  33467.2 hPa SW 3.2 mph /  5.1 km/h 8.0 mph /  12.9 km/h 97 % 0.0 in /  0 mm
12:45 2.8 °F /  -16.2 °C 2.4 °F /  -16.4 °C 988.0 in /  33453.7 hPa SW 3.2 mph /  5.1 km/h 11.3 mph /  18.2 km/h 97 % 0.0 in /  0 mm
13:00 3.1 °F /  -16.1 °C 2.7 °F /  -16.3 °C 988.0 in /  33453.7 hPa SSW 1.6 mph /  2.6 km/h 8.0 mph /  12.9 km/h 97 % 0.0 in /  0 mm
13:15 3.3 °F /  -15.9 °C 2.9 °F /  -16.2 °C 987.7 in /  33443.5 hPa SW 3.2 mph /  5.1 km/h 9.7 mph /  15.6 km/h 97 % 0.0 in /  0 mm
13:30 3.4 °F /  -15.9 °C 3.0 °F /  -16.1 °C 987.7 in /  33443.5 hPa WSW 3.2 mph /  5.1 km/h 11.3 mph /  18.2 km/h 97 % 0.0 in /  0 mm
13:45 3.4 °F /  -15.9 °C 3.0 °F /  -16.1 °C 988.0 in /  33453.7 hPa West 1.6 mph /  2.6 km/h 11.3 mph /  18.2 km/h 97 % 0.0 in /  0 mm
14:00 3.4 °F /  -15.9 °C 3.0 °F /  -16.1 °C 987.7 in /  33443.5 hPa West 3.2 mph /  5.1 km/h 8.0 mph /  12.9 km/h 97 % 0.0 in /  0 mm
14:15 3.4 °F /  -15.9 °C 3.0 °F /  -16.1 °C 987.7 in /  33443.5 hPa WSW 3.2 mph /  5.1 km/h 14.5 mph /  23.3 km/h 97 % 0.0 in /  0 mm
14:30 3.5 °F /  -15.8 °C 3.1 °F /  -16.1 °C 987.7 in /  33443.5 hPa WSW 3.2 mph /  5.1 km/h 9.7 mph /  15.6 km/h 97 % 0.0 in /  0 mm
14:45 3.5 °F /  -15.8 °C 2.9 °F /  -16.2 °C 987.7 in /  33443.5 hPa SW 3.2 mph /  5.1 km/h 11.3 mph /  18.2 km/h 96 % 0.0 in /  0 mm
15:00 3.4 °F /  -15.9 °C 2.9 °F /  -16.2 °C 987.7 in /  33443.5 hPa SW 3.2 mph /  5.1 km/h 9.7 mph /  15.6 km/h 96 % 0.0 in /  0 mm
15:15 3.4 °F /  -15.9 °C 2.9 °F /  -16.2 °C 987.7 in /  33443.5 hPa WSW 1.6 mph /  2.6 km/h 9.7 mph /  15.6 km/h 96 % 0.0 in /  0 mm
15:30 3.6 °F /  -15.8 °C 3.0 °F /  -16.1 °C 987.4 in /  33433.4 hPa SSW 3.2 mph /  5.1 km/h 9.7 mph /  15.6 km/h 96 % 0.0 in /  0 mm
15:45 3.6 °F /  -15.8 °C 3.0 °F /  -16.1 °C 987.4 in /  33433.4 hPa SW 3.2 mph /  5.1 km/h 9.7 mph /  15.6 km/h 96 % 0.0 in /  0 mm
16:00 3.4 °F /  -15.9 °C 2.9 °F /  -16.2 °C 987.4 in /  33433.4 hPa SSW 3.2 mph /  5.1 km/h 6.4 mph /  10.3 km/h 96 % 0.0 in /  0 mm
16:15 3.3 °F /  -15.9 °C 2.7 °F /  -16.3 °C 987.0 in /  33419.8 hPa SW 3.2 mph /  5.1 km/h 12.9 mph /  20.8 km/h 96 % 0.0 in /  0 mm
16:30 3.3 °F /  -15.9 °C 2.7 °F /  -16.3 °C 987.0 in /  33419.8 hPa SSW 1.6 mph /  2.6 km/h 6.4 mph /  10.3 km/h 96 % 0.0 in /  0 mm
16:45 3.2 °F /  -16 °C 2.6 °F /  -16.3 °C 986.7 in /  33409.7 hPa SSW 1.6 mph /  2.6 km/h 8.0 mph /  12.9 km/h 96 % 0.0 in /  0 mm
17:00 3.3 °F /  -15.9 °C 2.7 °F /  -16.3 °C 986.7 in /  33409.7 hPa SSW 3.2 mph /  5.1 km/h 11.3 mph /  18.2 km/h 96 % 0.0 in /  0 mm
17:15 3.2 °F /  -16 °C 2.6 °F /  -16.3 °C 986.3 in /  33396.1 hPa SSW 3.2 mph /  5.1 km/h 12.9 mph /  20.8 km/h 96 % 0.0 in /  0 mm
17:30 3.1 °F /  -16.1 °C 2.5 °F /  -16.4 °C 986.0 in /  33386 hPa SSW 3.2 mph /  5.1 km/h 9.7 mph /  15.6 km/h 96 % 0.0 in /  0 mm
18:00 3.1 °F /  -16.1 °C 2.5 °F /  -16.4 °C 985.7 in /  33375.8 hPa SSW 6.4 mph /  10.3 km/h 12.9 mph /  20.8 km/h 96 % 0.0 in /  0 mm
18:15 3.1 °F /  -16.1 °C 2.7 °F /  -16.3 °C 985.3 in /  33362.3 hPa SSW 3.2 mph /  5.1 km/h 11.3 mph /  18.2 km/h 97 % 0.0 in /  0 mm
18:30 3.3 °F /  -15.9 °C 2.8 °F /  -16.2 °C 985.3 in /  33362.3 hPa SSW 4.8 mph /  7.7 km/h 11.3 mph /  18.2 km/h 97 % 0.0 in /  0 mm
18:45 3.5 °F /  -15.8 °C 3.1 °F /  -16.1 °C 985.0 in /  33352.1 hPa SSW 6.4 mph /  10.3 km/h 17.7 mph /  28.5 km/h 97 % 0.0 in /  0 mm
19:15 3.8 °F /  -15.7 °C 3.3 °F /  -15.9 °C 984.6 in /  33338.6 hPa SSW 6.4 mph /  10.3 km/h 12.9 mph /  20.8 km/h 97 % 0.0 in /  0 mm
19:30 3.8 °F /  -15.7 °C 3.3 °F /  -15.9 °C 984.6 in /  33338.6 hPa SSW 6.4 mph /  10.3 km/h 17.7 mph /  28.5 km/h 96 % 0.0 in /  0 mm
19:45 3.9 °F /  -15.6 °C 3.4 °F /  -15.9 °C 984.3 in /  33328.4 hPa SSW 4.8 mph /  7.7 km/h 16.1 mph /  25.9 km/h 96 % 0.0 in /  0 mm
20:00 3.9 °F /  -15.6 °C 3.4 °F /  -15.9 °C 984.0 in /  33318.2 hPa SSW 4.8 mph /  7.7 km/h 16.1 mph /  25.9 km/h 96 % 0.0 in /  0 mm
20:15 3.9 °F /  -15.6 °C 3.4 °F /  -15.9 °C 984.0 in /  33318.2 hPa SSW 8.0 mph /  12.9 km/h 17.7 mph /  28.5 km/h 96 % 0.0 in /  0 mm
20:30 3.8 °F /  -15.7 °C 3.1 °F /  -16.1 °C 984.0 in /  33318.2 hPa SW 4.8 mph /  7.7 km/h 14.5 mph /  23.3 km/h 95 % 0.0 in /  0 mm
20:45 3.8 °F /  -15.7 °C 3.1 °F /  -16.1 °C 984.3 in /  33328.4 hPa West 6.4 mph /  10.3 km/h 25.7 mph /  41.4 km/h 95 % 0.0 in /  0 mm
21:00 3.3 °F /  -15.9 °C 2.3 °F /  -16.5 °C 985.0 in /  33352.1 hPa NW 8.0 mph /  12.9 km/h 16.1 mph /  25.9 km/h 93 % 0.0 in /  0 mm
21:15 1.8 °F /  -16.8 °C 1.0 °F /  -17.2 °C 985.3 in /  33362.3 hPa NW 6.4 mph /  10.3 km/h 17.7 mph /  28.5 km/h 94 % 0.0 in /  0 mm
21:30 0.9 °F /  -17.3 °C 0.1 °F /  -17.7 °C 986.0 in /  33386 hPa NNW 8.0 mph /  12.9 km/h 25.7 mph /  41.4 km/h 94 % 0.0 in /  0 mm
21:45 0.4 °F /  -17.6 °C -0.5 °F /  -18.1 °C 986.3 in /  33396.1 hPa NNW 8.0 mph /  12.9 km/h 20.9 mph /  33.6 km/h 94 % 0.0 in /  0 mm
22:00 0.0 °F /  -17.8 °C -1.0 °F /  -18.3 °C 986.7 in /  33409.7 hPa NNW 11.3 mph /  18.2 km/h 30.6 mph /  49.2 km/h 93 % 0.0 in /  0 mm
22:15 -0.3 °F /  -17.9 °C -1.5 °F /  -18.6 °C 987.4 in /  33433.4 hPa NW 11.3 mph /  18.2 km/h 25.7 mph /  41.4 km/h 92 % 0.0 in /  0 mm
22:30 -0.6 °F /  -18.1 °C -1.8 °F /  -18.8 °C 987.7 in /  33443.5 hPa NW 9.7 mph /  15.6 km/h 22.5 mph /  36.2 km/h 91 % 0.0 in /  0 mm
22:45 -0.7 °F /  -18.2 °C -2.0 °F /  -18.9 °C 988.0 in /  33453.7 hPa NW 8.0 mph /  12.9 km/h 16.1 mph /  25.9 km/h 91 % 0.0 in /  0 mm
23:00 -0.6 °F /  -18.1 °C -1.9 °F /  -18.8 °C 988.4 in /  33467.2 hPa NW 6.4 mph /  10.3 km/h 22.5 mph /  36.2 km/h 91 % 0.0 in /  0 mm
23:15 -0.6 °F /  -18.1 °C -2.0 °F /  -18.9 °C 988.7 in /  33477.4 hPa NW 9.7 mph /  15.6 km/h 20.9 mph /  33.6 km/h 90 % 0.0 in /  0 mm
23:30 -0.6 °F /  -18.1 °C -2.0 °F /  -18.9 °C 988.7 in /  33477.4 hPa NW 8.0 mph /  12.9 km/h 16.1 mph /  25.9 km/h 90 % 0.0 in /  0 mm
23:45 -0.7 °F /  -18.2 °C -2.0 °F /  -18.9 °C 988.7 in /  33477.4 hPa WNW 4.8 mph /  7.7 km/h 11.3 mph /  18.2 km/h 91 % 0.0 in /  0 mm
Esan sääasema
Terveisin Weather Underground - 2.75 mb

Alkuperäinen skripti  Jim McMurry - jmcmurry@mwt.net Sovitettu myös templatelle  Wim van der Kuil - Leuven-Template.eu

Laitteet joita käytämme:

Sääasema
Davis VP2

Sääasemaohjelma
Cumulus

Sääaseman tietokone
Asus EeePC

Palveluntarjoaja
Suncomet

Davis VP2

Cumulus

Asus EeePC

Suncomet